Sumisemaru No.5 — JE3162 — position and weather

sailwx.info

Track history (hours):
 
Tides and Currents Weather Stations Pressure Air Temp Water Temp Dewpoint Dewpoint Depression Visibility Wind Speed Wind Dir Waves Ship Positions

Sumisemaru No.5

Last reported at 2014-Sep-18 03:34 UTC. Time now 2014-Sep-18 03:41 UTC.
Position N 35°25' E 139°43'.

Length 96 m; draft 5.7 m.

Type: Cargo ship. MMSI: 431700423.

Date/timePositionNaut miles runAvg speedWind from/ knotsBaromVisibWave heightAir tempDewpointWater temp
2014-Sep-18 03:34N 35°25' E 139°43'1211.9
2014-Sep-18 02:33N 35°13' E 139°47'1211.7
2014-Sep-18 01:33N 35°02' E 139°43'1311.0
2014-Sep-18 00:24N 34°51' E 139°51'1011.5
2014-Sep-17 23:33N 34°54' E 140°03'1312.6
2014-Sep-17 22:30N 35°02' E 140°15'1312.9
2014-Sep-17 21:32N 35°09' E 140°28'1413.7
2014-Sep-17 20:30N 35°20' E 140°39'1313.5
2014-Sep-17 19:32N 35°31' E 140°48'1613.7
2014-Sep-17 18:24N 35°45' E 140°57'  
2014-Sep-13 21:04N 36°19' E 140°58'611.9
2014-Sep-13 20:32N 36°13' E 140°58'1211.9
2014-Sep-13 19:32N 36°01' E 140°58'1212.3
2014-Sep-13 18:32N 35°49' E 140°58'1212.0
2014-Sep-13 17:33N 35°37' E 140°54'1413.5
2014-Sep-13 16:29N 35°25' E 140°45'5610.6
2014-Sep-13 11:11N 35°01' E 139°42'812.1
2014-Sep-13 10:33N 35°09' E 139°45'1212.3
2014-Sep-13 09:34N 35°21' E 139°42'1312.5
2014-Sep-13 08:33N 35°31' E 139°51'8 8.2
2014-Sep-13 07:33N 35°38' E 139°45'0 0.0
2014-Sep-13 06:33N 35°38' E 139°45'0 0.0
2014-Sep-13 05:21N 35°38' E 139°46'0 0.1
2014-Sep-13 04:33N 35°38' E 139°45'0 0.0
2014-Sep-13 03:30N 35°38' E 139°46'0 0.0
2014-Sep-13 02:33N 35°38' E 139°46'0 0.0
2014-Sep-13 01:27N 35°38' E 139°46'0 0.1
2014-Sep-13 00:33N 35°38' E 139°45'0 0.0
2014-Sep-12 23:33N 35°38' E 139°45'0 0.0
2014-Sep-12 22:33N 35°38' E 139°46'0 0.0
2014-Sep-12 21:32N 35°38' E 139°46'0 0.4
2014-Sep-12 20:33N 35°38' E 139°46'9 8.9
2014-Sep-12 19:33N 35°31' E 139°53'1010.3
2014-Sep-12 18:33N 35°22' E 139°45'1110.5
2014-Sep-12 17:33N 35°12' E 139°47'1211.0
2014-Sep-12 16:27N 35°00' E 139°41'  
2014-Sep-09 20:06N 34°56' E 139°26'713.3
2014-Sep-09 19:33N 34°60' E 139°33'1211.5
2014-Sep-09 18:33N 35°07' E 139°44'1211.9
2014-Sep-09 17:33N 35°19' E 139°44'1010.2
2014-Sep-09 16:32N 35°29' E 139°40'0 0.1
2014-Sep-09 15:31N 35°29' E 139°40'0 0.0
2014-Sep-09 14:31N 35°29' E 139°40'0 0.0
2014-Sep-09 13:31N 35°29' E 139°40'0 0.0
2014-Sep-09 12:31N 35°29' E 139°40'0 0.0
2014-Sep-09 11:31N 35°29' E 139°40'0 0.0
2014-Sep-09 10:31N 35°29' E 139°40'0 0.0
2014-Sep-09 09:31N 35°29' E 139°40'0 0.0
2014-Sep-09 08:31N 35°29' E 139°40'0 0.0
2014-Sep-09 07:31N 35°29' E 139°40'0 0.0
2014-Sep-09 06:31N 35°29' E 139°40'0 0.0
2014-Sep-09 05:31N 35°29' E 139°40'0 0.0
2014-Sep-09 04:31N 35°29' E 139°40'1 0.6
2014-Sep-09 03:34N 35°28' E 139°40'10 9.7
2014-Sep-09 02:34N 35°19' E 139°44'10 9.8
2014-Sep-09 01:34N 35°09' E 139°46'1010.1
2014-Sep-09 00:34N 35°00' E 139°41'1010.3
2014-Sep-08 23:33N 34°55' E 139°30'52 8.4
2014-Sep-08 17:23N 34°30' E 138°34'  
Track history (hours):
 
Tides and Currents Weather Stations Pressure Air Temp Water Temp Dewpoint Dewpoint Depression Visibility Wind Speed Wind Dir Waves Ship Positions

Sumisemaru No.5

Last reported at 2014-Sep-18 03:34 UTC. Time now 2014-Sep-18 03:41 UTC.
Position N 35°25' E 139°43'.

Length 96 m; draft 5.7 m.

Type: Cargo ship. MMSI: 431700423.

Date/timePositionNaut miles runAvg speedWind from/ knotsBaromVisibWave heightAir tempDewpointWater temp
2014-Sep-18 03:34N 35°25' E 139°43'1211.9
2014-Sep-18 02:33N 35°13' E 139°47'1211.7
2014-Sep-18 01:33N 35°02' E 139°43'1311.0
2014-Sep-18 00:24N 34°51' E 139°51'1011.5
2014-Sep-17 23:33N 34°54' E 140°03'1312.6
2014-Sep-17 22:30N 35°02' E 140°15'1312.9
2014-Sep-17 21:32N 35°09' E 140°28'1413.7
2014-Sep-17 20:30N 35°20' E 140°39'1313.5
2014-Sep-17 19:32N 35°31' E 140°48'1613.7
2014-Sep-17 18:24N 35°45' E 140°57'  
2014-Sep-13 21:04N 36°19' E 140°58'611.9
2014-Sep-13 20:32N 36°13' E 140°58'1211.9
2014-Sep-13 19:32N 36°01' E 140°58'1212.3
2014-Sep-13 18:32N 35°49' E 140°58'1212.0
2014-Sep-13 17:33N 35°37' E 140°54'1413.5
2014-Sep-13 16:29N 35°25' E 140°45'5610.6
2014-Sep-13 11:11N 35°01' E 139°42'812.1
2014-Sep-13 10:33N 35°09' E 139°45'1212.3
2014-Sep-13 09:34N 35°21' E 139°42'1312.5
2014-Sep-13 08:33N 35°31' E 139°51'8 8.2
2014-Sep-13 07:33N 35°38' E 139°45'0 0.0
2014-Sep-13 06:33N 35°38' E 139°45'0 0.0
2014-Sep-13 05:21N 35°38' E 139°46'0 0.1
2014-Sep-13 04:33N 35°38' E 139°45'0 0.0
2014-Sep-13 03:30N 35°38' E 139°46'0 0.0
2014-Sep-13 02:33N 35°38' E 139°46'0 0.0
2014-Sep-13 01:27N 35°38' E 139°46'0 0.1
2014-Sep-13 00:33N 35°38' E 139°45'0 0.0
2014-Sep-12 23:33N 35°38' E 139°45'0 0.0
2014-Sep-12 22:33N 35°38' E 139°46'0 0.0
2014-Sep-12 21:32N 35°38' E 139°46'0 0.4
2014-Sep-12 20:33N 35°38' E 139°46'9 8.9
2014-Sep-12 19:33N 35°31' E 139°53'1010.3
2014-Sep-12 18:33N 35°22' E 139°45'1110.5
2014-Sep-12 17:33N 35°12' E 139°47'1211.0
2014-Sep-12 16:27N 35°00' E 139°41'  
2014-Sep-09 20:06N 34°56' E 139°26'713.3
2014-Sep-09 19:33N 34°60' E 139°33'1211.5
2014-Sep-09 18:33N 35°07' E 139°44'1211.9
2014-Sep-09 17:33N 35°19' E 139°44'1010.2
2014-Sep-09 16:32N 35°29' E 139°40'0 0.1
2014-Sep-09 15:31N 35°29' E 139°40'0 0.0
2014-Sep-09 14:31N 35°29' E 139°40'0 0.0
2014-Sep-09 13:31N 35°29' E 139°40'0 0.0
2014-Sep-09 12:31N 35°29' E 139°40'0 0.0
2014-Sep-09 11:31N 35°29' E 139°40'0 0.0
2014-Sep-09 10:31N 35°29' E 139°40'0 0.0
2014-Sep-09 09:31N 35°29' E 139°40'0 0.0
2014-Sep-09 08:31N 35°29' E 139°40'0 0.0
2014-Sep-09 07:31N 35°29' E 139°40'0 0.0
2014-Sep-09 06:31N 35°29' E 139°40'0 0.0
2014-Sep-09 05:31N 35°29' E 139°40'0 0.0
2014-Sep-09 04:31N 35°29' E 139°40'1 0.6
2014-Sep-09 03:34N 35°28' E 139°40'10 9.7
2014-Sep-09 02:34N 35°19' E 139°44'10 9.8
2014-Sep-09 01:34N 35°09' E 139°46'1010.1
2014-Sep-09 00:34N 35°00' E 139°41'1010.3
2014-Sep-08 23:33N 34°55' E 139°30'52 8.4
2014-Sep-08 17:23N 34°30' E 138°34'  

Dump ship's entire track history